Time;durP1;ratioP1;P1;durP2;ratioP2;P2;SDS_P1;SDS_P2;PMS_P1;PMS_P2;Temp;Humidity;BMP_temperature;BMP_pressure;BME280_temperature;BME280_humidity;BME280_pressure;Samples;Min_cycle;Max_cycle;Signal;HPM_P1;HPM_P2
2022/02/04 00:01:11;;;;;;;;;;;;;;;-144.99;100.00;52582.63;5052391;28;20005;-59
2022/02/04 00:09:22;;;;;;;;;;;;;;;-144.99;100.00;52554.09;5031930;28;19952;-59
2022/02/04 00:23:06;;;;;;;;;;;;;;;-144.99;100.00;52592.81;5040380;28;20108;-59
2022/02/04 00:25:44;;;;;;;;;;;;;;;-144.99;100.00;52627.47;5051558;28;19993;-59
2022/02/04 00:28:16;;;;;;;;;;;;;;;-144.99;100.00;52590.78;5051647;28;20025;-59
2022/02/04 00:30:48;;;;;;;;;;;;;;;-144.99;100.00;52558.16;5050998;28;19960;-59
2022/02/04 00:33:17;;;;;;;;;;;;;;;-144.99;100.00;52607.09;5051124;28;20467;-59
2022/02/04 00:35:55;;;;;;;;;;;;;;;-144.99;100.00;52566.31;5050667;28;19979;-58
2022/02/04 00:38:28;;;;;;;;;;;;;;;-144.99;100.00;52568.34;5050920;28;20367;-60
2022/02/04 00:41:01;;;;;;;;;;;;;;;-144.99;100.00;52627.47;5061949;28;20365;-59
2022/02/04 00:43:28;;;;;;;;;;;;;;;-144.99;100.00;52643.78;5050679;28;20057;-59
2022/02/04 00:46:02;;;;;;;;;;;;;;;-144.99;100.00;52576.50;5050734;28;20205;-59
2022/02/04 00:48:37;;;;;;;;;;;;;;;-144.99;100.00;52598.94;5051610;28;20314;-58
2022/02/04 00:51:11;;;;;;;;;;;;;;;-144.99;100.00;52613.19;5050662;28;20008;-60
2022/02/04 00:53:46;;;;;;;;;;;;;;;-144.99;100.00;52594.84;5050753;28;19979;-59
2022/02/04 00:56:21;;;;;;;;;;;;;;;-144.99;100.00;52560.19;5050835;28;19951;-60
2022/02/04 01:26:27;;;;;;;;;;;;;;;-144.99;100.00;52588.75;5045659;28;19980;-59
2022/02/04 01:28:54;;;;;;;;;;;;;;;-144.99;100.00;52586.69;5050400;28;20405;-58
2022/02/04 01:31:23;;;;;;;;;;;;;;;-144.99;100.00;52578.53;5050262;28;19983;-59
2022/02/04 01:33:50;;;;;;;;;;;;;;;-144.99;100.00;52594.84;5050572;28;19969;-59
2022/02/04 01:36:18;;;;;;;;;;;;;;;-144.99;100.00;52578.53;5050370;28;19961;-58
2022/02/04 01:38:45;;;;;;;;;;;;;;;-144.99;100.00;52558.16;5051202;28;19995;-59
2022/02/04 01:41:12;;;;;;;;;;;;;;;-144.99;100.00;52603.00;5050663;28;19953;-60
2022/02/04 01:43:39;;;;;;;;;;;;;;;-144.99;100.00;52582.63;5050579;28;20466;-59
2022/02/04 01:46:07;;;;;;;;;;;;;;;-144.99;100.00;52566.31;5050704;28;19970;-59
2022/02/04 01:48:34;;;;;;;;;;;;;;;-144.99;100.00;52592.81;5050698;28;19952;-61
2022/02/04 01:51:01;;;;;;;;;;;;;;;-144.99;100.00;52603.00;5052127;28;19967;-58
2022/02/04 01:53:29;;;;;;;;;;;;;;;-144.99;100.00;52594.84;5050999;28;20039;-58
2022/02/04 01:55:56;;;;;;;;;;;;;;;-144.99;100.00;52609.13;5052108;28;20502;-60
2022/02/04 01:58:22;;;;;;;;;;;;;;;-144.99;100.00;52586.69;5051963;28;20067;-59
2022/02/04 02:00:49;;;;;;;;;;;;;;;-144.99;100.00;52598.94;5050157;28;19969;-60
2022/02/04 02:03:15;;;;;;;;;;;;;;;-144.99;100.00;52578.53;5048996;28;19972;-60
2022/02/04 02:05:42;;;;;;;;;;;;;;;-144.99;100.00;52631.53;5049325;28;20448;-59
2022/02/04 02:08:10;;;;;;;;;;;;;;;-144.99;100.00;52582.63;5052958;28;19953;-60
2022/02/04 02:10:38;;;;;;;;;;;;;;;-144.99;100.00;52611.16;5057291;28;20004;-59
2022/02/04 02:13:14;;;;;;;;;;;;;;;-144.99;100.00;52586.69;5054286;28;20009;-59
2022/02/04 02:15:49;;;;;;;;;;;;;;;-144.99;100.00;52586.69;5054282;28;20324;-59
2022/02/04 02:43:18;;;;;;;;;;;;;;;-144.99;100.00;52623.38;5051665;28;19977;-60
2022/02/04 02:46:03;;;;;;;;;;;;;;;-144.99;100.00;52568.34;5052622;28;19955;-59
2022/02/04 02:48:45;;;;;;;;;;;;;;;-144.99;100.00;52619.31;5053392;28;19964;-60
2022/02/04 02:54:19;;;;;;;;;;;;;;;-144.99;100.00;52558.16;5035327;28;19968;-59
2022/02/04 02:59:48;;;;;;;;;;;;;;;-144.99;100.00;52590.78;5010316;28;19968;-59
2022/02/04 03:02:14;;;;;;;;;;;;;;;-144.99;100.00;52586.69;5044755;28;20000;-61
2022/02/04 03:04:41;;;;;;;;;;;;;;;-144.99;100.00;52629.50;5052463;28;19950;-58
2022/02/04 03:07:07;;;;;;;;;;;;;;;-144.99;100.00;52584.66;5052836;28;20428;-59
2022/02/04 03:09:35;;;;;;;;;;;;;;;-144.99;100.00;52623.38;5065258;28;20044;-59
2022/02/04 03:12:01;;;;;;;;;;;;;;;-144.99;100.00;52607.09;5055828;28;19986;-59
2022/02/04 03:14:28;;;;;;;;;;;;;;;-144.99;100.00;52572.44;5058336;28;20054;-59
2022/02/04 03:16:55;;;;;;;;;;;;;;;-144.99;100.00;52590.78;5052211;28;20311;-61
2022/02/04 03:19:22;;;;;;;;;;;;;;;-144.99;100.00;52611.16;5052510;28;19967;-60
2022/02/04 03:21:50;;;;;;;;;;;;;;;-144.99;100.00;52590.78;5054355;28;19954;-59
2022/02/04 03:24:20;;;;;;;;;;;;;;;-144.99;100.00;52619.31;5052383;28;19974;-59
2022/02/04 03:26:50;;;;;;;;;;;;;;;-144.99;100.00;52598.94;5052276;28;20414;-60
2022/02/04 03:29:18;;;;;;;;;;;;;;;-144.99;100.00;52558.16;5052405;28;20505;-60
2022/02/04 03:31:49;;;;;;;;;;;;;;;-144.99;100.00;52582.63;5052394;28;19960;-60
2022/02/04 03:34:17;;;;;;;;;;;;;;;-144.99;100.00;52651.94;5052323;28;20380;-59
2022/02/04 03:36:43;;;;;;;;;;;;;;;-144.99;100.00;52635.63;5038764;28;19958;-61
2022/02/04 03:39:09;;;;;;;;;;;;;;;-144.99;100.00;52603.00;5052026;28;19979;-59
2022/02/04 03:41:36;;;;;;;;;;;;;;;-144.99;100.00;52578.53;5052244;28;19960;-60
2022/02/04 03:44:04;;;;;;;;;;;;;;;-144.99;100.00;52613.19;5053031;28;20055;-61
2022/02/04 03:46:30;;;;;;;;;;;;;;;-144.99;100.00;52609.13;5052341;28;19957;-58
2022/02/04 03:48:57;;;;;;;;;;;;;;;-144.99;100.00;52627.47;5061498;28;19956;-59
2022/02/04 03:51:23;;;;;;;;;;;;;;;-144.99;100.00;52615.25;5052127;28;19958;-59
2022/02/04 03:53:49;;;;;;;;;;;;;;;-144.99;100.00;52637.66;5052671;28;19978;-58
2022/02/04 03:56:16;;;;;;;;;;;;;;;-144.99;100.00;52619.31;5053144;28;20056;-61
2022/02/04 03:58:42;;;;;;;;;;;;;;;-144.99;100.00;52619.31;5052483;28;20028;-59
2022/02/04 04:01:10;;;;;;;;;;;;;;;-144.99;100.00;52574.47;5052971;28;19962;-61
2022/02/04 04:03:36;;;;;;;;;;;;;;;-144.99;100.00;52574.47;5052737;28;19964;-60
2022/02/04 04:06:03;;;;;;;;;;;;;;;-144.99;100.00;52586.69;5051916;28;19953;-59
2022/02/04 04:08:29;;;;;;;;;;;;;;;-144.99;100.00;52590.78;5058013;28;19958;-60
2022/02/04 04:10:56;;;;;;;;;;;;;;;-144.99;100.00;52570.38;5061455;28;19925;-58
2022/02/04 04:13:22;;;;;;;;;;;;;;;-144.99;100.00;52570.38;5051785;28;19966;-61
2022/02/04 04:15:49;;;;;;;;;;;;;;;-144.99;100.00;52594.84;5052472;28;19962;-59
2022/02/04 04:18:16;;;;;;;;;;;;;;;-144.99;100.00;52592.81;5052054;28;19972;-60
2022/02/04 04:20:43;;;;;;;;;;;;;;;-144.99;100.00;52570.38;5050897;28;19949;-59
2022/02/04 04:23:10;;;;;;;;;;;;;;;-144.99;100.00;52574.47;5053814;28;20409;-61
2022/02/04 04:25:36;;;;;;;;;;;;;;;-144.99;100.00;52603.00;5033913;28;20467;-59
2022/02/04 04:28:03;;;;;;;;;;;;;;;-144.99;100.00;52623.38;5051160;28;20110;-60
2022/02/04 04:30:29;;;;;;;;;;;;;;;-144.99;100.00;52598.94;5050927;28;20455;-59
2022/02/04 04:32:57;;;;;;;;;;;;;;;-144.99;100.00;52570.38;5050852;28;19976;-59
2022/02/04 04:35:26;;;;;;;;;;;;;;;-144.99;100.00;52600.97;5050648;28;20372;-59
2022/02/04 04:37:57;;;;;;;;;;;;;;;-144.99;100.00;52611.16;5051877;28;19965;-59
2022/02/04 04:40:36;;;;;;;;;;;;;;;-144.99;100.00;52627.47;5062044;28;19948;-59
2022/02/04 04:43:13;;;;;;;;;;;;;;;-144.99;100.00;52603.00;5051463;28;20029;-60
2022/02/04 04:46:04;;;;;;;;;;;;;;;-144.99;100.00;52566.31;5050905;28;19982;-61
2022/02/04 05:29:43;;;;;;;;;;;;;;;-144.99;100.00;52635.63;5028497;28;19961;-60
2022/02/04 05:32:10;;;;;;;;;;;;;;;-144.99;100.00;52600.97;5050338;28;19959;-60
2022/02/04 05:34:36;;;;;;;;;;;;;;;-144.99;100.00;52603.00;5049599;28;19946;-59
2022/02/04 05:37:05;;;;;;;;;;;;;;;-144.99;100.00;52611.16;5049865;28;19951;-60
2022/02/04 05:39:38;;;;;;;;;;;;;;;-144.99;100.00;52584.66;5049858;28;20122;-59
2022/02/04 05:42:06;;;;;;;;;;;;;;;-144.99;100.00;52623.38;5049870;28;20422;-59
2022/02/04 05:44:38;;;;;;;;;;;;;;;-144.99;100.00;52643.78;5049689;28;19978;-58
2022/02/04 05:47:12;;;;;;;;;;;;;;;-144.99;100.00;52639.69;5049669;28;20020;-59
2022/02/04 05:49:45;;;;;;;;;;;;;;;-144.99;100.00;52613.19;5049458;28;19969;-59
2022/02/04 05:52:16;;;;;;;;;;;;;;;-144.99;100.00;52607.09;5044735;28;20424;-57
2022/02/04 05:54:59;;;;;;;;;;;;;;;-144.99;100.00;52598.94;5049798;28;19985;-59
2022/02/04 05:57:38;;;;;;;;;;;;;;;-144.99;100.00;52619.31;5049796;28;20327;-59
2022/02/04 06:00:19;;;;;;;;;;;;;;;-144.99;100.00;52615.25;5049870;28;19995;-59
2022/02/04 06:02:54;;;;;;;;;;;;;;;-144.99;100.00;52623.38;5049907;28;20048;-58
2022/02/04 06:05:42;;;;;;;;;;;;;;;-144.99;100.00;52603.00;5049818;28;20355;-58
2022/02/04 06:08:30;;;;;;;;;;;;;;;-144.99;100.00;52633.59;5053433;28;20036;-57
2022/02/04 06:11:15;;;;;;;;;;;;;;;-144.99;100.00;52631.53;5056599;28;20494;-58
2022/02/04 06:13:52;;;;;;;;;;;;;;;-144.99;100.00;52598.94;5051044;28;20042;-59
2022/02/04 06:22:18;;;;;;;;;;;;;;;-144.99;100.00;52603.00;5049337;28;20123;-59
2022/02/04 06:24:44;;;;;;;;;;;;;;;-144.99;100.00;52603.00;5049195;28;20001;-58
2022/02/04 06:27:12;;;;;;;;;;;;;;;-144.99;100.00;52607.09;5050150;28;19983;-58
2022/02/04 06:29:39;;;;;;;;;;;;;;;-144.99;100.00;52576.50;5049538;28;19978;-58
2022/02/04 06:32:05;;;;;;;;;;;;;;;-144.99;100.00;52590.78;5049659;28;19982;-58
2022/02/04 06:34:35;;;;;;;;;;;;;;;-144.99;100.00;52623.38;5049718;28;20069;-58
2022/02/04 06:37:04;;;;;;;;;;;;;;;-144.99;100.00;52615.25;5051872;28;19977;-59
2022/02/04 06:39:31;;;;;;;;;;;;;;;-144.99;100.00;52564.28;5056213;28;20110;-59
2022/02/04 06:41:57;;;;;;;;;;;;;;;-144.99;100.00;52586.69;5059700;28;20112;-59
2022/02/04 06:44:25;;;;;;;;;;;;;;;-144.99;100.00;52586.69;5049370;28;20271;-59
2022/02/04 06:46:52;;;;;;;;;;;;;;;-144.99;100.00;52598.94;5049956;28;19985;-58
2022/02/04 06:49:18;;;;;;;;;;;;;;;-144.99;100.00;52590.78;5049938;28;20440;-58
2022/02/04 06:51:44;;;;;;;;;;;;;;;-144.99;100.00;52600.97;5049356;28;19979;-58
2022/02/04 06:54:14;;;;;;;;;;;;;;;-144.99;100.00;52586.69;5049450;28;19995;-58
2022/02/04 06:56:40;;;;;;;;;;;;;;;-144.99;100.00;52590.78;5049567;28;20099;-58
2022/02/04 06:59:06;;;;;;;;;;;;;;;-144.99;100.00;52603.00;5049176;28;20457;-59
2022/02/04 07:01:34;;;;;;;;;;;;;;;-144.99;100.00;52619.31;5049049;28;19977;-59
2022/02/04 07:04:03;;;;;;;;;;;;;;;-144.99;100.00;52615.25;5050246;28;20002;-57
2022/02/04 07:06:31;;;;;;;;;;;;;;;-144.99;100.00;52615.25;5052730;28;19984;-59
2022/02/04 07:09:12;;;;;;;;;;;;;;;-144.99;100.00;52537.78;5057986;28;19992;-60
2022/02/04 07:12:05;;;;;;;;;;;;;;;-144.99;100.00;52623.38;5059599;28;19981;-58
2022/02/04 07:14:40;;;;;;;;;;;;;;;-144.99;100.00;52641.72;5051060;28;20354;-60
2022/02/04 07:17:17;;;;;;;;;;;;;;;-144.99;100.00;52639.69;5052920;28;20590;-60
2022/02/04 07:19:46;;;;;;;;;;;;;;;-144.99;100.00;52607.09;5052580;28;19990;-60
2022/02/04 07:22:12;;;;;;;;;;;;;;;-144.99;100.00;52586.69;5055208;28;19982;-60
2022/02/04 07:24:39;;;;;;;;;;;;;;;-144.99;100.00;52643.78;5051860;28;20237;-59
2022/02/04 07:27:06;;;;;;;;;;;;;;;-144.99;100.00;52605.03;5052778;28;20010;-62
2022/02/04 07:29:33;;;;;;;;;;;;;;;-144.99;100.00;52570.38;5052510;28;20122;-61
2022/02/04 07:32:02;;;;;;;;;;;;;;;-144.99;100.00;52594.84;5052126;28;19986;-60
2022/02/04 07:34:42;;;;;;;;;;;;;;;-144.99;100.00;52607.09;5051864;28;20390;-60
2022/02/04 07:42:36;;;;;;;;;;;;;;;-144.99;100.00;52582.63;5052587;28;20481;-59
2022/02/04 07:45:02;;;;;;;;;;;;;;;-144.99;100.00;52586.69;5051320;28;20005;-60
2022/02/04 07:47:29;;;;;;;;;;;;;;;-144.99;100.00;52586.69;5052269;28;19974;-58
2022/02/04 07:49:56;;;;;;;;;;;;;;;-144.99;100.00;52590.78;5051625;28;19979;-60
2022/02/04 07:52:23;;;;;;;;;;;;;;;-144.99;100.00;52603.00;5052012;28;20562;-60
2022/02/04 07:54:51;;;;;;;;;;;;;;;-144.99;100.00;52586.69;5052048;28;20388;-60
2022/02/04 07:57:18;;;;;;;;;;;;;;;-144.99;100.00;52574.47;5051815;28;19986;-60
2022/02/04 07:59:46;;;;;;;;;;;;;;;-144.99;100.00;52615.25;5051475;28;20035;-59
2022/02/04 08:02:13;;;;;;;;;;;;;;;-144.99;100.00;52570.38;5051690;28;20043;-60
2022/02/04 08:04:45;;;;;;;;;;;;;;;-144.99;100.00;52598.94;5051441;28;20462;-59
2022/02/04 08:07:15;;;;;;;;;;;;;;;-144.99;100.00;52566.31;5051994;28;19978;-59
2022/02/04 08:09:52;;;;;;;;;;;;;;;-144.99;100.00;52627.47;5065515;28;19979;-60
2022/02/04 08:15:12;;;;;;;;;;;;;;;-144.99;100.00;52603.00;5050209;28;20408;-61
2022/02/04 08:20:51;;;;;;;;;;;;;;;-144.99;100.00;52590.78;5051303;28;19997;-62
2022/02/04 08:26:51;;;;;;;;;;;;;;;-144.99;100.00;52607.09;5107927;27;19976;-60
2022/02/04 08:29:38;;;;;;;;;;;;;;;-144.99;100.00;52603.00;5108345;28;19981;-59
2022/02/04 08:35:09;;;;;;;;;;;;;;;-144.99;100.00;52627.47;5107103;28;19981;-59
2022/02/04 08:37:57;;;;;;;;;;;;;;;-144.99;100.00;52635.63;5094595;28;20018;-61
2022/02/04 08:51:50;;;;;;;;;;;;;;;-144.99;100.00;52615.25;5087352;28;20580;-62
2022/02/04 08:54:23;;;;;;;;;;;;;;;-144.99;100.00;52596.88;5086609;28;20522;-60
2022/02/04 08:56:57;;;;;;;;;;;;;;;-144.99;100.00;52598.94;5087340;28;19977;-59
2022/02/04 08:59:29;;;;;;;;;;;;;;;-144.99;100.00;52623.38;5087216;28;19982;-60
2022/02/04 09:02:02;;;;;;;;;;;;;;;-144.99;100.00;52625.44;5086770;28;19992;-59
2022/02/04 09:04:40;;;;;;;;;;;;;;;-144.99;100.00;52566.31;5087282;28;20136;-61
2022/02/04 09:07:12;;;;;;;;;;;;;;;-144.99;100.00;52560.19;5087122;28;19982;-63
2022/02/04 09:09:52;;;;;;;;;;;;;;;-144.99;100.00;52529.63;5086899;28;20108;-60
2022/02/04 09:18:20;;;;;;;;;;;;;;;-144.99;100.00;52609.13;5085562;28;20059;-60
2022/02/04 09:20:58;;;;;;;;;;;;;;;-144.99;100.00;52594.84;5091106;28;19978;-61
2022/02/04 09:23:28;;;;;;;;;;;;;;;-144.99;100.00;52619.31;5086855;28;19993;-60
2022/02/04 09:25:55;;;;;;;;;;;;;;;-144.99;100.00;52615.25;5102207;28;19971;-60
2022/02/04 09:28:21;;;;;;;;;;;;;;;-144.99;100.00;52627.47;5106830;28;19981;-61
2022/02/04 09:30:49;;;;;;;;;;;;;;;-144.99;100.00;52574.47;5106447;28;19997;-60
2022/02/04 09:33:16;;;;;;;;;;;;;;;-144.99;100.00;52619.31;5106544;28;19997;-60
2022/02/04 09:35:42;;;;;;;;;;;;;;;-144.99;100.00;52552.03;5104930;28;20029;-60
2022/02/04 09:38:09;;;;;;;;;;;;;;;-144.99;100.00;52584.66;5092677;28;20445;-60
2022/02/04 09:40:36;;;;;;;;;;;;;;;-144.99;100.00;52607.09;5093317;28;20166;-61
2022/02/04 09:43:03;;;;;;;;;;;;;;;-144.99;100.00;52635.63;5099216;28;19990;-60
2022/02/04 09:45:31;;;;;;;;;;;;;;;-144.99;100.00;52605.03;5112429;28;20461;-62
2022/02/04 09:47:59;;;;;;;;;;;;;;;-144.99;100.00;52578.53;5079460;28;20064;-60
2022/02/04 09:50:28;;;;;;;;;;;;;;;-144.99;100.00;52578.53;5092315;28;19980;-61
2022/02/04 10:10:08;;;;;;;;;;;;;;;-144.99;100.00;52554.09;5066563;28;19974;-63
2022/02/04 10:12:58;;;;;;;;;;;;;;;-144.99;99.58;52607.09;5075994;22;20030;-60
2022/02/04 10:15:33;;;;;;;;;;;;;;;-144.99;99.92;52574.47;5040649;28;20492;-58
2022/02/04 10:18:07;;;;;;;;;;;;;;;-144.99;99.88;52554.09;5051254;28;20008;-59
2022/02/04 10:20:36;;;;;;;;;;;;;;;-144.99;100.00;52588.75;5050699;28;19983;-59
2022/02/04 10:23:02;;;;;;;;;;;;;;;-144.99;99.66;52574.47;5052609;28;19990;-58
2022/02/04 10:25:33;;;;;;;;;;;;;;;-144.99;99.51;52578.53;5050762;28;20001;-58
2022/02/04 10:28:03;;;;;;;;;;;;;;;-144.99;99.27;52603.00;5050469;28;19984;-58
2022/02/04 10:30:32;;;;;;;;;;;;;;;-144.99;98.80;52576.50;5050515;28;19977;-58
2022/02/04 10:32:59;;;;;;;;;;;;;;;-144.99;98.54;52639.69;5050769;28;19998;-59
2022/02/04 10:35:29;;;;;;;;;;;;;;;-144.99;99.10;52566.31;5050494;28;19987;-59
2022/02/04 10:38:08;;;;;;;;;;;;;;;-144.99;98.68;52550.00;5057460;28;20403;-59
2022/02/04 10:40:44;;;;;;;;;;;;;;;-144.99;97.51;52594.84;5062275;28;19980;-60
2022/02/04 10:43:24;;;;;;;;;;;;;;;-144.99;97.64;52550.00;5037688;28;19995;-61
2022/02/04 10:46:04;;;;;;;;;;;;;;;-144.99;97.27;52603.00;5049987;28;20010;-59
2022/02/04 10:54:22;;;;;;;;;;;;;;;-144.99;95.79;52603.00;5048060;28;20156;-60
2022/02/04 10:57:05;;;;;;;;;;;;;;;-144.99;95.49;52574.47;5050579;28;20417;-61
2022/02/04 10:59:48;;;;;;;;;;;;;;;-144.99;95.14;52582.63;5049862;28;19981;-61
2022/02/04 11:05:05;;;;;;;;;;;;;;;-144.99;94.62;52598.94;5049124;28;19982;-61
2022/02/04 11:08:03;;;;;;;;;;;;;;;-144.99;93.24;52578.53;5038858;28;19975;-61
2022/02/04 11:10:55;;;;;;;;;;;;;;;-144.99;93.10;52525.56;5054921;28;20424;-59
2022/02/04 11:22:07;;;;;;;;;;;;;;;-144.99;90.74;52537.78;5050937;28;20023;-59
2022/02/04 11:33:44;;;;;;;;;;;;;;;-144.99;91.07;52586.69;5049662;28;20001;-59
2022/02/04 11:36:31;;;;;;;;;;;;;;;-144.99;90.28;52574.47;5048927;28;20011;-59
2022/02/04 11:53:27;;;;;;;;;;;;;;;-144.99;91.82;52578.53;5037296;28;19995;-59
2022/02/04 11:55:58;;;;;;;;;;;;;;;-144.99;92.02;52643.78;5049128;28;19976;-59
2022/02/04 11:58:25;;;;;;;;;;;;;;;-144.99;91.31;52635.63;5049241;28;19974;-59
2022/02/04 12:01:02;;;;;;;;;;;;;;;-144.99;91.49;52615.25;5049342;28;19974;-59
2022/02/04 12:03:35;;;;;;;;;;;;;;;-144.99;90.92;52578.53;5048662;28;20089;-59
2022/02/04 12:06:02;;;;;;;;;;;;;;;-144.99;90.76;52594.84;5048675;28;19996;-60
2022/02/04 12:08:31;;;;;;;;;;;;;;;-144.99;91.21;52615.25;5054564;28;19974;-59
2022/02/04 12:10:59;;;;;;;;;;;;;;;-144.99;91.25;52570.38;5057448;28;20427;-59
2022/02/04 12:13:26;;;;;;;;;;;;;;;-144.99;90.89;52613.19;5048363;28;20023;-59
2022/02/04 12:15:58;;;;;;;;;;;;;;;-144.99;90.44;52582.63;5048525;28;20266;-59
2022/02/04 12:18:45;;;;;;;;;;;;;;;-144.99;91.18;52594.84;5048771;28;20033;-59
2022/02/04 12:21:12;;;;;;;;;;;;;;;-144.99;90.60;52566.31;5049535;28;19973;-59
2022/02/04 12:23:48;;;;;;;;;;;;;;;-144.99;91.16;52631.53;5049033;28;20442;-59
2022/02/04 12:26:17;;;;;;;;;;;;;;;-144.99;90.79;52625.44;5049114;28;20046;-59
2022/02/04 12:28:44;;;;;;;;;;;;;;;-144.99;90.74;52635.63;5049125;28;19985;-59
2022/02/04 12:31:14;;;;;;;;;;;;;;;-144.99;90.43;52576.50;5048739;28;20084;-59
2022/02/04 12:33:41;;;;;;;;;;;;;;;-144.99;89.79;52607.09;5048469;28;19996;-58
2022/02/04 12:36:12;;;;;;;;;;;;;;;-144.99;90.46;52627.47;5048474;28;20069;-59
2022/02/04 12:38:41;;;;;;;;;;;;;;;-144.99;90.42;52545.94;5062958;28;20384;-60
2022/02/04 12:41:08;;;;;;;;;;;;;;;-144.99;89.98;52562.25;5057426;28;19996;-59
2022/02/04 12:43:35;;;;;;;;;;;;;;;-144.99;89.77;52558.16;5048760;28;20374;-62
2022/02/04 12:46:01;;;;;;;;;;;;;;;-144.99;89.50;52603.00;5048329;28;19998;-59
2022/02/04 12:48:29;;;;;;;;;;;;;;;-144.99;89.81;52598.94;5049175;28;20026;-60
2022/02/04 12:50:56;;;;;;;;;;;;;;;-144.99;89.34;52631.53;5048401;28;19978;-60
2022/02/04 12:53:23;;;;;;;;;;;;;;;-144.99;89.23;52603.00;5048710;28;20434;-61
2022/02/04 12:56:02;;;;;;;;;;;;;;;-144.99;89.24;52582.63;5048959;28;20404;-61
2022/02/04 13:09:51;;;;;;;;;;;;;;;-144.99;90.11;52627.47;5062402;28;19981;-61
2022/02/04 13:12:18;;;;;;;;;;;;;;;-144.99;89.74;52594.84;5063326;28;19988;-61
2022/02/04 13:14:46;;;;;;;;;;;;;;;-144.99;89.37;52594.84;5055433;28;19988;-59
2022/02/04 13:17:12;;;;;;;;;;;;;;;-144.99;88.99;52517.41;5039181;28;20503;-59
2022/02/04 13:19:40;;;;;;;;;;;;;;;-144.99;88.87;52607.09;5052193;28;19974;-59
2022/02/04 13:22:07;;;;;;;;;;;;;;;-144.99;88.81;52605.03;5054618;28;19958;-59
2022/02/04 13:24:33;;;;;;;;;;;;;;;-144.99;88.42;52615.25;5051596;28;20432;-60
2022/02/04 13:27:11;;;;;;;;;;;;;;;-144.99;88.16;52619.31;5051378;28;19987;-58
2022/02/04 13:29:37;;;;;;;;;;;;;;;-144.99;88.24;52598.94;5051519;28;20415;-59
2022/02/04 13:32:19;;;;;;;;;;;;;;;-144.99;87.76;52603.00;5043631;28;19981;-60
2022/02/04 13:34:46;;;;;;;;;;;;;;;-144.99;88.83;52586.69;5048704;28;20407;-60
2022/02/04 13:37:25;;;;;;;;;;;;;;;-144.99;88.60;52554.09;5051634;28;20045;-60
2022/02/04 13:39:58;;;;;;;;;;;;;;;-144.99;88.48;52607.09;5051949;28;19982;-60
2022/02/04 13:42:33;;;;;;;;;;;;;;;-144.99;88.58;52582.63;5052188;28;19992;-61
2022/02/04 13:45:07;;;;;;;;;;;;;;;-144.99;88.48;52611.16;5050836;28;20072;-60
2022/02/04 13:47:42;;;;;;;;;;;;;;;-144.99;88.10;52641.72;5051553;28;20027;-60
2022/02/04 13:50:20;;;;;;;;;;;;;;;-144.99;87.87;52623.38;5062474;28;19975;-60
2022/02/04 13:53:05;;;;;;;;;;;;;;;-144.99;87.67;52574.47;5052817;28;20066;-59
2022/02/04 13:55:52;;;;;;;;;;;;;;;-144.99;87.89;52603.00;5051270;28;19976;-58
2022/02/04 13:58:28;;;;;;;;;;;;;;;-144.99;87.54;52586.69;5051775;28;20135;-59
2022/02/04 14:01:01;;;;;;;;;;;;;;;-144.99;86.88;52550.00;5050747;28;19968;-60
2022/02/04 14:03:30;;;;;;;;;;;;;;;-144.99;86.11;52607.09;5051484;28;20432;-58
2022/02/04 14:06:02;;;;;;;;;;;;;;;-144.99;86.80;52623.38;5050335;28;19963;-59
2022/02/04 14:08:32;;;;;;;;;;;;;;;-144.99;86.60;52617.28;5056662;28;20051;-62
2022/02/04 14:11:02;;;;;;;;;;;;;;;-144.99;85.97;52594.84;5051253;28;20313;-59
2022/02/04 14:13:30;;;;;;;;;;;;;;;-144.99;86.24;52598.94;5046517;28;19993;-58
2022/02/04 14:15:58;;;;;;;;;;;;;;;-144.99;86.21;52627.47;5050915;28;20072;-58
2022/02/04 14:18:25;;;;;;;;;;;;;;;-144.99;86.04;52619.31;5051283;28;20398;-58
2022/02/04 14:20:51;;;;;;;;;;;;;;;-144.99;86.62;52586.69;5050770;28;19962;-58
2022/02/04 14:23:19;;;;;;;;;;;;;;;-144.99;86.31;52600.97;5053224;28;20074;-59
2022/02/04 14:25:49;;;;;;;;;;;;;;;-144.99;86.26;52576.50;5052315;28;20054;-59
2022/02/04 14:28:21;;;;;;;;;;;;;;;-144.99;86.84;52598.94;5051681;28;19993;-59
2022/02/04 14:30:51;;;;;;;;;;;;;;;-144.99;85.90;52590.78;5051098;28;20080;-61
2022/02/04 14:33:49;;;;;;;;;;;;;;;-144.99;86.42;52647.84;5051803;28;19994;-61
2022/02/04 14:36:13;;;;;;;;;;;;;;;-144.99;86.32;52643.78;5050739;28;20011;-60
2022/02/04 14:52:29;;;;;;;;;;;;;;;-144.99;86.48;52611.16;5042704;28;19987;-60
2022/02/04 15:00:40;;;;;;;;;;;;;;;-144.99;87.59;52621.34;5049704;28;20480;-60
2022/02/04 15:03:25;;;;;;;;;;;;;;;-144.99;89.11;52594.84;5050614;28;20092;-59
2022/02/04 15:06:01;;;;;;;;;;;;;;;-144.99;90.20;52611.16;5049560;28;20023;-59
2022/02/04 15:08:28;;;;;;;;;;;;;;;-144.99;91.65;52586.69;5055878;28;20460;-59
2022/02/04 15:10:59;;;;;;;;;;;;;;;-144.99;92.16;52590.78;5059922;28;19970;-59
2022/02/04 15:13:26;;;;;;;;;;;;;;;-144.99;92.90;52562.25;5062874;28;20052;-59
2022/02/04 15:15:53;;;;;;;;;;;;;;;-144.99;94.20;52603.00;5049343;28;20020;-59
2022/02/04 15:18:21;;;;;;;;;;;;;;;-144.99;94.74;52656.00;5049842;28;19976;-58
2022/02/04 15:20:48;;;;;;;;;;;;;;;-144.99;93.96;52623.38;5049366;28;19982;-58
2022/02/04 15:23:16;;;;;;;;;;;;;;;-144.99;94.36;52572.44;5051601;28;19989;-59
2022/02/04 15:25:43;;;;;;;;;;;;;;;-144.99;94.21;52592.81;5049939;28;20177;-58
2022/02/04 15:28:28;;;;;;;;;;;;;;;-144.99;93.07;52586.69;5050637;28;20006;-59
2022/02/04 15:30:54;;;;;;;;;;;;;;;-144.99;93.39;52627.47;5049184;28;20076;-59
2022/02/04 15:33:21;;;;;;;;;;;;;;;-144.99;92.56;52631.53;5049057;28;20005;-59
2022/02/04 15:35:48;;;;;;;;;;;;;;;-144.99;93.21;52594.84;5048843;28;19970;-58
2022/02/04 15:38:14;;;;;;;;;;;;;;;-144.99;93.47;52576.50;5049120;28;20005;-58
2022/02/04 15:40:45;;;;;;;;;;;;;;;-144.99;94.28;52625.44;5049741;28;19976;-58
2022/02/04 15:43:14;;;;;;;;;;;;;;;-144.99;95.96;52609.13;5049075;28;19995;-57
2022/02/04 15:48:35;;;;;;;;;;;;;;;-144.99;98.14;52629.50;5054160;28;19969;-59
2022/02/04 15:51:14;;;;;;;;;;;;;;;-144.99;98.38;52611.16;5055445;28;19974;-58
2022/02/04 15:53:58;;;;;;;;;;;;;;;-144.99;97.86;52603.00;5052742;28;20051;-59
2022/02/04 15:56:48;;;;;;;;;;;;;;;-144.99;98.08;52611.16;5057131;28;19977;-59
2022/02/04 16:02:14;;;;;;;;;;;;;;;-144.99;96.25;52651.94;5052286;28;19983;-59
2022/02/04 16:04:44;;;;;;;;;;;;;;;-144.99;96.12;52590.78;5055353;28;19974;-59
2022/02/04 16:07:10;;;;;;;;;;;;;;;-144.99;95.42;52603.00;5055150;28;20402;-58
2022/02/04 16:09:37;;;;;;;;;;;;;;;-144.99;94.67;52635.63;5070611;28;19984;-58
2022/02/04 16:12:10;;;;;;;;;;;;;;;-144.99;95.27;52631.53;5057629;28;20018;-58
2022/02/04 16:14:43;;;;;;;;;;;;;;;-144.99;95.62;52651.94;5056508;28;19978;-59
2022/02/04 16:17:15;;;;;;;;;;;;;;;-144.99;95.84;52619.31;5056165;22;19994;-59
2022/02/04 16:19:45;;;;;;;;;;;;;;;-144.99;96.30;52627.47;5030064;28;19973;-58
2022/02/04 16:22:33;;;;;;;;;;;;;;;-144.99;97.31;52619.31;5032330;28;19971;-59
2022/02/04 16:30:19;;;;;;;;;;;;;;;-144.99;99.86;52582.63;5029913;28;19986;-59
2022/02/04 16:32:45;;;;;;;;;;;;;;;-144.99;100.00;52582.63;5029948;28;19996;-60
2022/02/04 16:35:12;;;;;;;;;;;;;;;-144.99;100.00;52627.47;5029841;28;19984;-61
2022/02/04 16:37:38;;;;;;;;;;;;;;;-144.99;100.00;52613.19;5017021;28;19976;-60
2022/02/04 16:40:10;;;;;;;;;;;;;;;-144.99;99.97;52635.63;5016399;28;19975;-61
2022/02/04 16:42:36;;;;;;;;;;;;;;;-144.99;97.69;52603.00;5014564;28;20097;-60
2022/02/04 16:45:02;;;;;;;;;;;;;;;-144.99;98.92;52619.31;5009105;28;19988;-60
2022/02/04 16:47:30;;;;;;;;;;;;;;;-144.99;99.62;52631.53;5012879;28;20038;-61
2022/02/04 16:50:00;;;;;;;;;;;;;;;-144.99;100.00;52623.38;5014080;28;20070;-61
2022/02/04 16:52:27;;;;;;;;;;;;;;;-144.99;100.00;52649.88;5014382;28;20086;-59
2022/02/04 16:54:53;;;;;;;;;;;;;;;-144.99;100.00;52660.09;5014294;28;19979;-60
2022/02/04 16:57:24;;;;;;;;;;;;;;;-144.99;100.00;52662.13;5016180;28;19981;-59